Time;durP1;ratioP1;P1;durP2;ratioP2;P2;SDS_P1;SDS_P2;PMS_P1;PMS_P2;Temp;Humidity;BMP_temperature;BMP_pressure;BME280_temperature;BME280_humidity;BME280_pressure;Samples;Min_cycle;Max_cycle;Signal;HPM_P1;HPM_P2
2022/01/06 00:02:18;;;;;;;15.20;2.50;;;;;;;4.29;100.00;99844.25;5255063;28;20399;-78
2022/01/06 00:04:48;;;;;;;12.65;2.83;;;;;;;4.35;100.00;99853.63;5255679;28;20027;-78
2022/01/06 00:07:19;;;;;;;25.58;2.90;;;;;;;4.27;100.00;99843.44;5249234;28;20116;-78
2022/01/06 00:09:50;;;;;;;15.02;1.85;;;;;;;4.28;100.00;99849.47;5232118;28;20415;-78
2022/01/06 00:12:25;;;;;;;9.43;2.13;;;;;;;4.19;100.00;99850.53;5253069;28;20023;-78
2022/01/06 00:18:08;;;;;;;12.02;2.60;;;;;;;4.20;100.00;99865.16;5251996;28;20075;-77
2022/01/06 00:23:30;;;;;;;22.85;2.67;;;;;;;4.29;100.00;99864.94;5250194;28;20039;-78
2022/01/06 00:26:02;;;;;;;14.75;2.10;;;;;;;4.29;100.00;99864.94;5255272;28;20028;-77
2022/01/06 00:28:33;;;;;;;13.07;1.85;;;;;;;4.34;100.00;99878.66;5251907;28;20029;-78
2022/01/06 00:31:04;;;;;;;14.00;2.22;;;;;;;4.39;100.00;99878.53;5247835;28;20036;-77
2022/01/06 00:33:35;;;;;;;12.45;2.20;;;;;;;4.29;100.00;99880.47;5233725;28;20122;-78
2022/01/06 00:36:05;;;;;;;17.15;3.33;;;;;;;4.41;100.00;99882.78;5254844;28;20682;-78
2022/01/06 00:38:35;;;;;;;15.38;2.65;;;;;;;4.41;100.00;99881.94;5251371;28;20972;-78
2022/01/06 00:41:05;;;;;;;10.70;1.70;;;;;;;4.37;100.00;99893.22;5255926;28;20031;-78
2022/01/06 00:43:36;;;;;;;13.40;2.05;;;;;;;4.36;100.00;99901.88;5254024;28;20028;-78
2022/01/06 00:46:06;;;;;;;12.88;2.20;;;;;;;4.30;100.00;99905.44;5236208;28;20119;-78
2022/01/06 00:48:36;;;;;;;11.02;2.45;;;;;;;4.27;100.00;99923.59;5252697;28;20375;-77
2022/01/06 00:51:09;;;;;;;14.07;2.63;;;;;;;4.21;100.00;99928.06;5235208;28;20139;-77
2022/01/06 00:53:39;;;;;;;12.05;1.95;;;;;;;3.93;100.00;99935.50;5252162;28;20024;-77
2022/01/06 00:56:09;;;;;;;5.07;1.00;;;;;;;3.40;100.00;99947.69;5253174;28;20031;-77
2022/01/06 00:58:40;;;;;;;4.13;1.00;;;;;;;3.09;100.00;99962.00;5250384;28;20012;-78
2022/01/06 01:01:10;;;;;;;5.05;0.88;;;;;;;2.92;100.00;99963.09;5249434;28;20533;-77
2022/01/06 01:03:40;;;;;;;2.17;0.68;;;;;;;2.59;100.00;99974.75;5234944;28;20020;-77
2022/01/06 01:06:11;;;;;;;3.08;0.75;;;;;;;2.45;100.00;99999.88;5251083;28;20028;-77
2022/01/06 01:08:41;;;;;;;1.65;0.47;;;;;;;2.35;100.00;99993.09;5248220;28;20081;-77
2022/01/06 01:11:11;;;;;;;2.45;0.60;;;;;;;2.33;100.00;99987.13;5254905;28;20051;-77
2022/01/06 01:13:55;;;;;;;2.30;0.70;;;;;;;2.44;100.00;99997.28;5247043;28;20027;-77
2022/01/06 01:16:31;;;;;;;2.00;0.60;;;;;;;2.38;100.00;99994.81;5246748;28;20029;-77
2022/01/06 01:19:08;;;;;;;3.22;0.88;;;;;;;2.32;100.00;100008.59;5248243;28;20016;-77
2022/01/06 01:21:38;;;;;;;2.90;1.27;;;;;;;2.29;100.00;100013.81;5249986;28;20038;-77
2022/01/06 01:24:08;;;;;;;3.10;0.80;;;;;;;2.38;100.00;100016.28;5239514;28;20287;-77
2022/01/06 01:26:39;;;;;;;1.88;0.63;;;;;;;2.47;100.00;100021.31;5247944;28;20050;-77
2022/01/06 01:29:15;;;;;;;2.75;0.68;;;;;;;2.47;100.00;100029.06;5262607;22;20112;-79
2022/01/06 01:31:50;;;;;;;6.28;0.88;;;;;;;2.48;100.00;100035.09;5249662;28;20142;-79
2022/01/06 01:34:23;;;;;;;4.75;0.90;;;;;;;2.51;100.00;100047.94;5247411;28;20032;-78
2022/01/06 01:36:55;;;;;;;1.42;0.50;;;;;;;2.49;100.00;100054.84;5251975;28;20111;-79
2022/01/06 01:39:26;;;;;;;3.50;0.75;;;;;;;2.60;100.00;100058.13;5243523;28;20048;-79
2022/01/06 01:41:56;;;;;;;2.70;0.80;;;;;;;2.49;100.00;100068.56;5243052;28;20143;-79
2022/01/06 01:44:26;;;;;;;5.00;0.90;;;;;;;2.62;100.00;100071.84;5242668;28;20056;-79
2022/01/06 01:47:03;;;;;;;4.20;0.68;;;;;;;2.53;100.00;100087.44;5243102;28;20099;-79
2022/01/06 01:49:48;;;;;;;3.13;0.80;;;;;;;2.47;100.00;100087.53;5242739;28;20020;-79
2022/01/06 01:52:18;;;;;;;3.53;0.68;;;;;;;2.42;100.00;100094.44;5243593;28;20086;-79
2022/01/06 01:54:49;;;;;;;3.13;0.52;;;;;;;2.39;100.00;100104.78;5242265;28;20028;-79
2022/01/06 01:57:19;;;;;;;3.35;0.80;;;;;;;2.40;100.00;100107.34;5242705;28;20549;-79
2022/01/06 01:59:50;;;;;;;2.55;0.80;;;;;;;2.49;100.00;100127.88;5238743;28;20040;-79
2022/01/06 02:02:20;;;;;;;2.60;0.90;;;;;;;2.42;100.00;100130.53;5238780;28;20511;-79
2022/01/06 02:04:52;;;;;;;2.42;0.60;;;;;;;2.46;100.00;100137.34;5242761;28;20474;-79
2022/01/06 02:07:23;;;;;;;3.28;0.50;;;;;;;2.52;100.00;100142.47;5238839;28;20521;-79
2022/01/06 02:09:53;;;;;;;1.30;0.55;;;;;;;2.48;100.00;100143.38;5239379;28;20044;-79
2022/01/06 02:12:29;;;;;;;1.77;0.60;;;;;;;2.43;100.00;100156.31;5242895;28;20058;-79
2022/01/06 02:15:00;;;;;;;1.33;0.55;;;;;;;2.39;100.00;100158.91;5242610;28;20541;-79
2022/01/06 02:17:30;;;;;;;1.83;0.57;;;;;;;2.38;100.00;100176.13;5242455;28;20115;-79
2022/01/06 02:20:04;;;;;;;5.57;0.70;;;;;;;2.47;100.00;100167.44;5242793;28;20074;-79
2022/01/06 02:22:34;;;;;;;3.20;0.63;;;;;;;2.49;100.00;100181.19;5242222;28;20036;-79
2022/01/06 02:25:29;;;;;;;3.47;0.70;;;;;;;2.40;100.00;100179.53;5237899;28;20066;-79
2022/01/06 02:28:02;;;;;;;2.92;0.55;;;;;;;2.48;100.00;100184.63;5238637;28;20615;-79
2022/01/06 02:30:34;;;;;;;4.03;0.82;;;;;;;2.43;100.00;100186.38;5238046;28;20042;-79
2022/01/06 02:33:06;;;;;;;3.55;0.70;;;;;;;2.51;100.00;100192.31;5241339;28;20048;-79
2022/01/06 02:35:36;;;;;;;2.13;0.65;;;;;;;2.40;100.00;100213.06;5240794;28;20078;-79
2022/01/06 02:38:08;;;;;;;4.97;1.08;;;;;;;2.28;100.00;100209.72;5236535;28;20409;-79
2022/01/06 02:40:39;;;;;;;4.97;0.77;;;;;;;2.31;100.00;100204.56;5222558;28;20481;-79
2022/01/06 02:43:10;;;;;;;3.17;0.60;;;;;;;2.28;100.00;100212.28;5242769;28;20035;-79
2022/01/06 02:45:40;;;;;;;2.65;0.52;;;;;;;2.23;100.00;100221.78;5242140;28;20025;-79
2022/01/06 02:48:11;;;;;;;1.95;0.52;;;;;;;2.28;100.00;100220.03;5242853;28;20020;-79
2022/01/06 02:50:47;;;;;;;2.92;0.60;;;;;;;2.18;100.00;100218.41;5242337;28;20033;-79
2022/01/06 02:53:19;;;;;;;1.33;0.40;;;;;;;2.20;100.00;100221.81;5240555;28;20377;-79
2022/01/06 02:55:51;;;;;;;3.05;0.45;;;;;;;2.02;100.00;100227.09;5242329;28;20056;-78
2022/01/06 02:58:24;;;;;;;0.80;0.38;;;;;;;1.99;100.00;100227.13;5241247;28;20024;-79
2022/01/06 03:00:54;;;;;;;2.60;0.65;;;;;;;1.87;100.00;100237.50;5235166;28;20534;-79
2022/01/06 03:03:24;;;;;;;2.08;0.60;;;;;;;1.76;100.00;100244.44;5239440;28;20115;-79
2022/01/06 03:05:55;;;;;;;3.50;0.60;;;;;;;1.80;100.00;100243.56;5241000;28;20025;-79
2022/01/06 03:08:27;;;;;;;2.40;0.60;;;;;;;1.75;100.00;100247.88;5234061;28;20029;-78
2022/01/06 03:10:57;;;;;;;1.98;0.63;;;;;;;1.82;100.00;100250.41;5240430;28;20036;-79
2022/01/06 03:13:27;;;;;;;2.08;0.60;;;;;;;1.64;100.00;100252.25;5223516;28;20470;-79
2022/01/06 03:15:59;;;;;;;2.75;0.85;;;;;;;1.74;100.00;100256.47;5242323;28;20035;-79
2022/01/06 03:18:29;;;;;;;2.95;0.57;;;;;;;1.77;100.00;100250.47;5241990;28;20017;-80
2022/01/06 03:20:59;;;;;;;3.88;0.60;;;;;;;1.70;100.00;100267.66;5241831;28;20374;-78
2022/01/06 03:23:30;;;;;;;2.55;0.75;;;;;;;1.79;100.00;100272.78;5234507;28;20656;-78
2022/01/06 03:26:00;;;;;;;3.53;0.60;;;;;;;1.74;100.00;100273.66;5236517;28;20025;-78
2022/01/06 03:28:31;;;;;;;2.30;0.57;;;;;;;1.76;100.00;100275.34;5241443;28;20136;-77
2022/01/06 03:31:01;;;;;;;2.38;0.50;;;;;;;1.80;100.00;100285.63;5242381;28;20036;-79
2022/01/06 03:33:32;;;;;;;3.08;0.77;;;;;;;1.68;100.00;100297.72;5241700;28;20020;-81
2022/01/06 03:36:02;;;;;;;5.25;0.70;;;;;;;1.79;100.00;100295.97;5240477;28;20477;-79
2022/01/06 03:38:32;;;;;;;2.60;0.63;;;;;;;1.73;100.00;100301.13;5230623;28;20107;-79
2022/01/06 03:41:03;;;;;;;3.50;0.80;;;;;;;1.61;100.00;100310.63;5231024;28;20033;-79
2022/01/06 03:43:33;;;;;;;3.10;0.82;;;;;;;1.59;100.00;100320.91;5231148;28;20024;-78
2022/01/06 03:46:03;;;;;;;2.83;0.68;;;;;;;1.70;100.00;100326.00;5231996;28;20025;-81
2022/01/06 03:48:33;;;;;;;2.30;0.52;;;;;;;1.79;100.00;100326.88;5230273;28;20124;-77
2022/01/06 03:51:04;;;;;;;3.35;0.60;;;;;;;1.77;100.00;100331.13;5230132;28;20490;-80
2022/01/06 03:53:34;;;;;;;1.67;0.70;;;;;;;1.65;100.00;100331.22;5213831;28;20027;-79
2022/01/06 03:56:04;;;;;;;1.73;0.70;;;;;;;1.43;100.00;100332.13;5230989;28;20039;-78
2022/01/06 03:58:39;;;;;;;4.40;1.10;;;;;;;1.56;100.00;100338.13;5231299;28;20021;-79
2022/01/06 04:01:10;;;;;;;4.70;1.00;;;;;;;1.41;100.00;100348.47;5230792;28;20389;-77
2022/01/06 04:03:40;;;;;;;2.05;0.80;;;;;;;1.60;100.00;100350.94;5232772;28;20029;-79
2022/01/06 04:06:10;;;;;;;2.67;1.20;;;;;;;1.58;100.00;100360.41;5230465;28;20028;-80
2022/01/06 04:08:41;;;;;;;2.88;1.05;;;;;;;1.37;100.00;100370.75;5228660;28;20573;-78
2022/01/06 04:11:11;;;;;;;4.57;0.98;;;;;;;1.42;100.00;100375.91;5229701;28;20485;-77
2022/01/06 04:13:42;;;;;;;4.93;1.50;;;;;;;1.40;100.00;100375.91;5229284;28;20212;-77
2022/01/06 04:16:15;;;;;;;3.55;1.30;;;;;;;1.36;100.00;100386.19;5232960;28;20031;-77
2022/01/06 04:18:45;;;;;;;2.78;1.23;;;;;;;1.31;100.00;100393.06;5228980;28;20063;-79
2022/01/06 04:21:16;;;;;;;4.90;1.10;;;;;;;1.26;100.00;100390.50;5233517;28;20077;-78
2022/01/06 04:23:47;;;;;;;4.35;1.70;;;;;;;1.39;100.00;100389.63;5224235;28;20535;-78
2022/01/06 04:26:17;;;;;;;3.35;1.17;;;;;;;1.36;100.00;100396.50;5233102;28;20032;-78
2022/01/06 04:28:48;;;;;;;5.05;1.10;;;;;;;1.20;100.00;100395.66;5229240;28;20474;-78
2022/01/06 04:31:18;;;;;;;6.10;1.00;;;;;;;1.14;100.00;100405.97;5232982;28;20025;-80
2022/01/06 04:33:49;;;;;;;4.38;0.98;;;;;;;1.02;100.00;100408.53;5228838;28;20032;-78
2022/01/06 04:36:20;;;;;;;2.58;0.80;;;;;;;0.99;100.00;100405.09;5231161;28;20112;-77
2022/01/06 04:38:50;;;;;;;4.43;0.60;;;;;;;0.97;100.00;100410.28;5210015;28;20029;-77
2022/01/06 04:41:21;;;;;;;2.03;0.60;;;;;;;0.85;100.00;100412.84;5229547;28;20285;-77
2022/01/06 04:43:51;;;;;;;1.95;0.68;;;;;;;0.83;100.00;100419.69;5232432;28;20484;-77
2022/01/06 04:46:21;;;;;;;3.47;0.60;;;;;;;0.82;100.00;100423.13;5229573;28;20029;-78
2022/01/06 04:48:51;;;;;;;3.20;0.65;;;;;;;0.75;100.00;100433.41;5213724;28;20310;-77
2022/01/06 04:51:22;;;;;;;2.60;0.57;;;;;;;0.70;100.00;100445.41;5229393;28;20037;-81
2022/01/06 04:53:52;;;;;;;4.63;0.80;;;;;;;0.71;100.00;100445.38;5231714;28;20402;-81
2022/01/06 04:56:22;;;;;;;2.40;0.50;;;;;;;0.68;100.00;100453.09;5230084;28;20036;-80
2022/01/06 04:58:53;;;;;;;3.92;0.73;;;;;;;0.66;100.00;100459.94;5230992;28;20032;-79
2022/01/06 05:01:23;;;;;;;3.42;0.60;;;;;;;0.67;100.00;100448.81;5233181;28;20113;-78
2022/01/06 05:03:53;;;;;;;5.13;0.65;;;;;;;0.58;100.00;100459.06;5235947;28;20115;-78
2022/01/06 05:06:25;;;;;;;7.05;0.80;;;;;;;0.57;100.00;100466.78;5234436;28;20494;-80
2022/01/06 05:08:55;;;;;;;1.85;0.80;;;;;;;0.57;100.00;100464.22;5229562;28;20071;-80
2022/01/06 05:11:26;;;;;;;6.25;1.20;;;;;;;0.53;100.00;100471.06;5232260;28;20110;-78
2022/01/06 05:13:56;;;;;;;5.68;1.20;;;;;;;0.58;100.00;100474.50;5234377;28;20025;-78
2022/01/06 05:16:26;;;;;;;2.97;0.98;;;;;;;0.61;100.00;100461.66;5234700;28;20466;-80
2022/01/06 05:18:57;;;;;;;4.53;0.90;;;;;;;0.58;100.00;100463.38;5233684;28;20466;-81
2022/01/06 05:21:31;;;;;;;3.05;0.90;;;;;;;0.61;100.00;100479.66;5235140;28;20039;-81
2022/01/06 05:24:10;;;;;;;5.55;0.88;;;;;;;0.64;100.00;100483.94;5230700;28;20196;-78
2022/01/06 05:26:41;;;;;;;2.67;0.90;;;;;;;0.69;100.00;100488.25;5232294;28;20036;-78
2022/01/06 05:29:12;;;;;;;5.28;1.63;;;;;;;0.78;100.00;100487.41;5231739;28;20021;-82
2022/01/06 05:31:43;;;;;;;4.35;1.13;;;;;;;0.84;100.00;100483.13;5228082;28;20099;-78
2022/01/06 05:34:13;;;;;;;3.47;1.00;;;;;;;0.84;100.00;100490.84;5236352;28;20121;-80
2022/01/06 05:36:43;;;;;;;5.70;1.02;;;;;;;0.88;100.00;100499.44;5231796;28;20033;-81
2022/01/06 05:39:14;;;;;;;2.47;1.02;;;;;;;0.90;100.00;100498.56;5232638;28;20272;-80
2022/01/06 05:41:45;;;;;;;3.70;1.38;;;;;;;0.88;100.00;100510.56;5231754;28;20510;-79
2022/01/06 05:44:15;;;;;;;2.90;1.30;;;;;;;0.84;100.00;100525.97;5235904;28;20211;-78
2022/01/06 05:46:47;;;;;;;5.72;1.20;;;;;;;0.97;100.00;100535.44;5232832;28;20386;-80
2022/01/06 05:49:17;;;;;;;4.00;1.30;;;;;;;0.84;100.00;100546.53;5231715;28;20025;-79
2022/01/06 05:51:48;;;;;;;6.95;1.48;;;;;;;1.00;100.00;100553.44;5235597;28;20038;-80
2022/01/06 05:54:18;;;;;;;6.05;1.50;;;;;;;0.98;100.00;100553.47;5231156;28;20032;-80
2022/01/06 05:56:48;;;;;;;3.80;1.60;;;;;;;1.02;100.00;100552.59;5235638;28;20583;-79
2022/01/06 05:59:18;;;;;;;4.03;1.90;;;;;;;1.15;100.00;100551.78;5232186;28;20027;-78
2022/01/06 06:01:49;;;;;;;6.22;2.17;;;;;;;1.20;100.00;100552.63;5240371;28;20272;-78
2022/01/06 06:04:19;;;;;;;5.20;1.85;;;;;;;1.16;100.00;100556.06;5234953;28;20105;-78
2022/01/06 06:06:49;;;;;;;7.20;2.00;;;;;;;1.16;100.00;100550.94;5213710;28;20029;-78
2022/01/06 06:09:20;;;;;;;7.85;1.80;;;;;;;1.18;100.00;100556.06;5231987;28;20032;-79
2022/01/06 06:11:50;;;;;;;5.45;1.85;;;;;;;1.30;100.00;100562.09;5229747;28;20033;-81
2022/01/06 06:14:20;;;;;;;6.53;1.73;;;;;;;1.46;100.00;100562.97;5235273;28;20028;-80
2022/01/06 06:16:51;;;;;;;4.60;1.70;;;;;;;1.70;100.00;100568.09;5239573;28;20055;-82
2022/01/06 06:19:21;;;;;;;5.47;1.50;;;;;;;1.62;100.00;100575.84;5232784;28;20056;-81
2022/01/06 06:21:51;;;;;;;6.53;2.08;;;;;;;1.56;100.00;100575.00;5233647;28;20028;-79
2022/01/06 06:24:23;;;;;;;5.32;2.00;;;;;;;1.47;100.00;100583.56;5234991;28;20031;-79
2022/01/06 06:26:53;;;;;;;4.13;1.52;;;;;;;1.51;100.00;100592.13;5213822;28;20036;-79
2022/01/06 06:29:23;;;;;;;6.13;1.95;;;;;;;1.66;100.00;100587.00;5230981;28;20454;-80
2022/01/06 06:31:53;;;;;;;6.50;1.52;;;;;;;1.57;100.00;100592.16;5234327;28;20398;-80
2022/01/06 06:34:24;;;;;;;4.53;2.38;;;;;;;1.58;100.00;100599.88;5235305;28;20024;-80
2022/01/06 06:36:54;;;;;;;5.88;1.83;;;;;;;1.46;100.00;100599.88;5221796;28;20033;-80
2022/01/06 06:39:24;;;;;;;7.38;1.88;;;;;;;1.59;100.00;100599.00;5224012;28;20389;-79
2022/01/06 06:41:55;;;;;;;6.97;1.90;;;;;;;1.56;100.00;100604.16;5229247;28;20031;-80
2022/01/06 06:44:25;;;;;;;5.53;1.70;;;;;;;1.54;100.00;100611.03;5231253;28;20037;-83
2022/01/06 06:46:55;;;;;;;5.18;1.90;;;;;;;1.66;100.00;100605.03;5232955;28;20027;-79
2022/01/06 06:49:25;;;;;;;8.57;2.00;;;;;;;1.43;100.00;100617.88;5232100;28;20029;-81
2022/01/06 06:51:56;;;;;;;8.80;2.58;;;;;;;1.38;100.00;100622.16;5233452;28;20516;-80
2022/01/06 06:54:27;;;;;;;5.28;1.92;;;;;;;1.27;100.00;100626.41;5232230;28;20040;-80
2022/01/06 06:56:57;;;;;;;8.80;2.72;;;;;;;1.35;100.00;100637.59;5233968;28;20156;-78
2022/01/06 06:59:27;;;;;;;4.43;1.80;;;;;;;1.33;100.00;100636.75;5230676;28;20323;-77
2022/01/06 07:01:57;;;;;;;6.05;1.73;;;;;;;1.31;100.00;100643.59;5224798;28;20028;-79
2022/01/06 07:04:28;;;;;;;8.77;1.70;;;;;;;1.29;100.00;100647.91;5232252;28;20032;-79
2022/01/06 07:06:58;;;;;;;5.47;1.60;;;;;;;1.35;100.00;100654.75;5229198;28;20036;-80
2022/01/06 07:09:28;;;;;;;5.13;2.33;;;;;;;1.40;100.00;100648.75;5223445;28;20111;-80
2022/01/06 07:11:59;;;;;;;5.18;2.22;;;;;;;1.44;100.00;100663.34;5232565;28;20043;-78
2022/01/06 07:14:29;;;;;;;4.85;2.35;;;;;;;1.33;100.00;100664.19;5228293;28;20036;-79
2022/01/06 07:16:59;;;;;;;9.25;2.42;;;;;;;1.27;100.00;100670.16;5234580;28;20020;-79
2022/01/06 07:19:29;;;;;;;4.88;2.10;;;;;;;1.36;100.00;100662.47;5232227;28;20048;-80
2022/01/06 07:22:00;;;;;;;4.78;2.10;;;;;;;1.37;100.00;100666.78;5232048;28;20052;-79
2022/01/06 07:24:30;;;;;;;5.05;1.80;;;;;;;1.33;100.00;100669.31;5230232;28;20028;-80
2022/01/06 07:27:00;;;;;;;4.47;2.22;;;;;;;1.28;100.00;100671.03;5232535;28;20051;-79
2022/01/06 07:29:31;;;;;;;4.97;1.85;;;;;;;1.54;100.00;100670.25;5230836;28;20114;-79
2022/01/06 07:32:02;;;;;;;6.85;2.00;;;;;;;1.46;100.00;100671.09;5226519;28;20039;-79
2022/01/06 07:34:32;;;;;;;7.43;1.80;;;;;;;1.46;100.00;100666.81;5233874;28;20331;-79
2022/01/06 07:37:03;;;;;;;5.18;2.00;;;;;;;1.54;100.00;100674.56;5232172;28;20032;-79
2022/01/06 07:39:33;;;;;;;9.20;2.00;;;;;;;1.36;100.00;100675.34;5230289;28;20020;-79
2022/01/06 07:42:04;;;;;;;7.85;2.28;;;;;;;1.35;100.00;100683.94;5234446;28;20037;-79
2022/01/06 07:44:35;;;;;;;5.35;1.92;;;;;;;1.35;100.00;100688.22;5215315;28;20386;-79
2022/01/06 07:47:05;;;;;;;3.88;1.77;;;;;;;1.37;100.00;100689.09;5232989;28;20044;-80
2022/01/06 07:49:35;;;;;;;7.03;2.22;;;;;;;1.44;100.00;100689.09;5231277;28;20021;-79
2022/01/06 07:52:06;;;;;;;5.78;1.98;;;;;;;1.34;100.00;100697.66;5233741;28;20513;-79
2022/01/06 07:54:36;;;;;;;5.75;1.80;;;;;;;1.32;100.00;100694.22;5231697;28;20500;-79
2022/01/06 07:57:07;;;;;;;7.22;1.67;;;;;;;1.37;100.00;100697.66;5214970;28;20035;-79
2022/01/06 07:59:37;;;;;;;7.80;1.92;;;;;;;1.43;100.00;100695.09;5231449;28;20171;-80
2022/01/06 08:02:08;;;;;;;4.82;2.17;;;;;;;1.45;100.00;100701.13;5231532;28;20490;-79
2022/01/06 08:04:38;;;;;;;4.88;1.58;;;;;;;1.51;100.00;100698.56;5231512;28;20026;-79
2022/01/06 08:07:09;;;;;;;3.00;1.60;;;;;;;1.56;100.00;100704.59;5232224;28;20571;-79
2022/01/06 08:09:45;;;;;;;4.75;2.08;;;;;;;1.51;100.00;100708.88;5231740;28;20028;-79
2022/01/06 08:12:15;;;;;;;5.85;1.80;;;;;;;1.60;100.00;100716.59;5234204;28;20052;-79
2022/01/06 08:14:45;;;;;;;6.63;2.38;;;;;;;1.71;100.00;100719.22;5216787;28;20067;-79
2022/01/06 08:17:16;;;;;;;6.20;1.60;;;;;;;1.67;100.00;100726.06;5227618;28;20035;-79
2022/01/06 08:19:47;;;;;;;3.17;1.35;;;;;;;1.90;100.00;100732.13;5216878;28;20032;-79
2022/01/06 08:22:19;;;;;;;3.53;1.73;;;;;;;2.86;100.00;100722.63;5232063;28;20033;-80
2022/01/06 08:24:52;;;;;;;4.30;1.42;;;;;;;3.42;100.00;100727.59;5235406;28;20077;-80
2022/01/06 08:27:23;;;;;;;9.27;2.60;;;;;;;3.35;100.00;100729.34;5232256;28;20475;-80
2022/01/06 08:29:53;;;;;;;8.80;2.60;;;;;;;4.11;98.47;100726.31;5232723;28;20037;-80
2022/01/06 08:32:24;;;;;;;4.38;2.17;;;;;;;4.08;96.16;100731.50;5231300;28;20047;-80
2022/01/06 08:34:54;;;;;;;4.30;1.58;;;;;;;4.47;93.39;100735.53;5231585;28;20021;-80
2022/01/06 08:37:24;;;;;;;5.43;1.38;;;;;;;4.63;91.63;100734.53;5236061;28;20108;-79
2022/01/06 08:39:54;;;;;;;3.85;1.15;;;;;;;3.91;91.06;100741.09;5234238;28;20231;-79
2022/01/06 08:42:25;;;;;;;3.40;1.20;;;;;;;3.59;95.30;100749.91;5237272;28;20028;-80
2022/01/06 08:44:55;;;;;;;3.80;1.25;;;;;;;4.02;94.98;100746.19;5235248;28;20565;-80
2022/01/06 08:47:26;;;;;;;4.35;1.20;;;;;;;3.64;96.01;100749.00;5237080;28;20646;-79
2022/01/06 08:49:57;;;;;;;3.55;1.27;;;;;;;3.34;96.81;100763.78;5235488;28;20200;-79
2022/01/06 08:52:27;;;;;;;4.57;1.27;;;;;;;3.15;98.15;100767.28;5236169;28;20029;-80
2022/01/06 08:54:57;;;;;;;3.13;1.25;;;;;;;3.07;99.22;100769.06;5236199;28;20036;-79
2022/01/06 08:57:28;;;;;;;3.72;1.30;;;;;;;2.94;98.89;100769.06;5218472;28;20496;-79
2022/01/06 08:59:59;;;;;;;2.83;1.38;;;;;;;2.98;100.00;100770.75;5216978;28;20036;-80
2022/01/06 09:02:30;;;;;;;6.90;1.85;;;;;;;2.71;100.00;100773.41;5235026;28;20031;-80
2022/01/06 09:05:02;;;;;;;3.45;1.25;;;;;;;2.93;99.58;100775.09;5236244;28;20450;-79
2022/01/06 09:07:34;;;;;;;6.35;1.48;;;;;;;2.85;100.00;100782.00;5235926;28;20025;-79
2022/01/06 09:10:04;;;;;;;2.97;1.40;;;;;;;2.57;100.00;100790.59;5237075;28;20036;-79
2022/01/06 09:12:34;;;;;;;5.72;1.45;;;;;;;2.81;100.00;100796.63;5236150;28;20478;-79
2022/01/06 09:15:08;;;;;;;5.22;1.90;;;;;;;2.92;100.00;100794.88;5234329;28;20076;-79
2022/01/06 09:17:39;;;;;;;6.60;1.88;;;;;;;3.05;100.00;100795.72;5236014;28;20119;-79
2022/01/06 09:20:09;;;;;;;5.05;1.67;;;;;;;2.90;100.00;100795.75;5234489;28;20549;-79
2022/01/06 09:22:41;;;;;;;4.10;1.40;;;;;;;2.99;100.00;100793.16;5237173;28;20103;-79
2022/01/06 09:25:13;;;;;;;4.10;1.55;;;;;;;2.91;100.00;100803.50;5233479;28;20029;-79
2022/01/06 09:27:44;;;;;;;4.47;1.70;;;;;;;2.94;100.00;100794.88;5218902;28;20028;-79
2022/01/06 09:30:14;;;;;;;8.32;1.83;;;;;;;3.00;100.00;100797.47;5234707;28;20027;-79
2022/01/06 09:32:44;;;;;;;5.65;1.63;;;;;;;2.96;100.00;100798.31;5234755;28;20040;-79
2022/01/06 09:35:15;;;;;;;4.50;1.63;;;;;;;3.00;100.00;100793.13;5237674;28;20024;-79
2022/01/06 09:37:45;;;;;;;8.10;1.92;;;;;;;3.06;100.00;100792.28;5232963;28;20028;-79
2022/01/06 09:40:15;;;;;;;5.45;1.80;;;;;;;3.09;100.00;100803.47;5234008;28;20056;-79
2022/01/06 09:42:46;;;;;;;5.22;1.60;;;;;;;3.06;100.00;100812.94;5229732;28;20115;-79
2022/01/06 09:45:16;;;;;;;4.40;1.60;;;;;;;3.12;100.00;100812.91;5238729;28;20035;-79
2022/01/06 09:47:49;;;;;;;10.15;1.85;;;;;;;3.47;100.00;100803.34;5233783;28;20028;-79
2022/01/06 09:50:20;;;;;;;7.45;2.22;;;;;;;3.54;100.00;100807.63;5238264;28;20103;-80
2022/01/06 09:52:51;;;;;;;5.97;1.90;;;;;;;3.53;100.00;100814.50;5236036;28;20517;-80
2022/01/06 09:55:21;;;;;;;5.88;1.65;;;;;;;3.50;100.00;100811.09;5217589;28;20028;-79
2022/01/06 09:57:57;;;;;;;7.35;2.13;;;;;;;3.25;100.00;100822.34;5233188;28;20446;-79
2022/01/06 10:00:30;;;;;;;6.60;1.95;;;;;;;3.46;100.00;100818.00;5232914;28;20021;-79
2022/01/06 10:03:03;;;;;;;8.27;2.20;;;;;;;3.52;100.00;100817.97;5230602;28;20033;-79
2022/01/06 10:05:49;;;;;;;6.35;2.20;;;;;;;3.56;100.00;100819.66;5234484;28;20050;-79
2022/01/06 10:08:28;;;;;;;5.10;2.28;;;;;;;3.57;100.00;100815.38;5223858;28;20025;-79
2022/01/06 10:11:09;;;;;;;8.35;2.70;;;;;;;3.71;100.00;100814.44;5232302;28;20095;-79
2022/01/06 10:13:42;;;;;;;8.60;1.92;;;;;;;3.64;100.00;100816.19;5236350;28;20052;-79
2022/01/06 10:16:17;;;;;;;5.68;2.25;;;;;;;3.77;100.00;100823.03;5233094;28;20040;-79
2022/01/06 10:19:14;;;;;;;3.80;2.10;;;;;;;3.80;100.00;100811.81;5229018;28;20025;-79
2022/01/06 10:21:49;;;;;;;8.25;2.00;;;;;;;3.96;100.00;100814.31;5228497;28;20033;-79
2022/01/06 10:24:22;;;;;;;6.78;2.40;;;;;;;3.99;100.00;100809.13;5229580;28;20028;-79
2022/01/06 10:26:57;;;;;;;6.93;2.00;;;;;;;4.26;99.85;100824.50;5236626;28;20395;-79
2022/01/06 10:29:33;;;;;;;7.85;2.20;;;;;;;4.27;100.00;100813.28;5236862;28;20021;-79
2022/01/06 10:32:09;;;;;;;3.83;1.75;;;;;;;4.38;99.09;100824.41;5235025;28;20036;-79
2022/01/06 10:34:47;;;;;;;7.72;2.78;;;;;;;4.23;97.90;100814.16;5234181;28;20482;-79
2022/01/06 10:37:26;;;;;;;7.40;2.10;;;;;;;4.21;99.10;100810.72;5228952;28;20033;-79
2022/01/06 10:39:59;;;;;;;8.15;2.40;;;;;;;4.29;98.17;100811.53;5228928;28;20020;-79
2022/01/06 10:42:32;;;;;;;6.18;2.20;;;;;;;4.08;98.40;100819.44;5232464;28;20544;-79
2022/01/06 10:45:11;;;;;;;5.47;1.90;;;;;;;4.28;98.45;100812.41;5232656;28;20095;-79
2022/01/06 10:47:47;;;;;;;5.50;1.80;;;;;;;4.15;98.90;100815.09;5231572;28;20475;-79
2022/01/06 10:50:19;;;;;;;7.63;2.72;;;;;;;4.15;97.93;100815.94;5227259;28;20029;-80
2022/01/06 10:53:00;;;;;;;4.45;1.70;;;;;;;4.10;96.77;100816.84;5235387;28;20067;-80
2022/01/06 10:55:33;;;;;;;9.02;2.70;;;;;;;4.11;97.02;100818.56;5236218;28;20051;-80
2022/01/06 10:58:08;;;;;;;12.85;3.50;;;;;;;4.16;95.94;100817.63;5235055;28;20025;-80
2022/01/06 11:00:42;;;;;;;;;;;;;;;3.91;96.95;100821.25;5232256;28;20258;-80
2022/01/06 11:03:14;;;;;;;9.55;2.83;;;;;;;4.05;97.06;100834.97;5236336;28;20342;-80
2022/01/06 11:05:48;;;;;;;6.32;2.20;;;;;;;3.95;96.76;100825.53;5233622;28;20116;-80
2022/01/06 11:08:22;;;;;;;8.75;2.40;;;;;;;4.09;97.10;100833.22;5224632;28;20021;-80
2022/01/06 11:13:34;;;;;;;6.05;2.20;;;;;;;4.17;97.39;100831.44;5231731;28;20433;-80
2022/01/06 11:16:06;;;;;;;5.90;1.70;;;;;;;4.05;99.10;100832.38;5235948;28;20483;-80
2022/01/06 11:18:41;;;;;;;5.35;1.70;;;;;;;4.08;98.93;100828.91;5234276;28;20037;-80
2022/01/06 11:21:14;;;;;;;;;;;;;;;4.06;98.80;100825.47;5234821;28;20067;-80
2022/01/06 11:23:44;;;;;;;6.90;2.22;;;;;;;4.11;99.03;100832.34;5229998;28;20318;-80
2022/01/06 11:26:22;;;;;;;6.88;1.83;;;;;;;4.03;99.41;100823.78;5233303;28;20029;-80
2022/01/06 11:28:55;;;;;;;5.82;2.05;;;;;;;4.14;98.84;100834.06;5227486;28;20047;-79
2022/01/06 11:31:28;;;;;;;8.35;2.30;;;;;;;4.18;98.24;100835.75;5231070;28;20033;-79
2022/01/06 11:33:58;;;;;;;7.28;2.10;;;;;;;4.16;97.63;100832.31;5232051;28;20028;-79
2022/01/06 11:36:31;;;;;;;7.07;2.58;;;;;;;4.26;97.47;100829.66;5231980;28;20029;-79
2022/01/06 11:39:05;;;;;;;10.75;2.83;;;;;;;4.31;98.80;100838.25;5212659;28;20025;-79
2022/01/06 11:41:38;;;;;;;7.47;2.77;;;;;;;4.39;98.04;100848.53;5229929;28;20078;-80
2022/01/06 11:44:30;;;;;;;23.27;5.90;;;;;;;4.41;97.59;100855.44;5224286;28;20445;-79
2022/01/06 11:47:02;;;;;;;6.10;1.80;;;;;;;4.34;97.57;100848.59;5230525;28;20096;-79
2022/01/06 11:49:39;;;;;;;9.13;2.50;;;;;;;4.30;97.00;100848.63;5232532;28;20020;-80
2022/01/06 11:52:12;;;;;;;9.65;2.95;;;;;;;4.25;97.20;100845.19;5234315;28;20040;-80
2022/01/06 11:54:51;;;;;;;17.02;3.58;;;;;;;4.26;97.87;100845.19;5231049;28;20021;-80
2022/01/06 11:57:31;;;;;;;20.75;5.85;;;;;;;4.29;97.94;100845.16;5228017;28;20072;-80